Time;durP1;ratioP1;P1;durP2;ratioP2;P2;SDS_P1;SDS_P2;PMS_P1;PMS_P2;Temp;Humidity;BMP_temperature;BMP_pressure;BME280_temperature;BME280_humidity;BME280_pressure;Samples;Min_cycle;Max_cycle;Signal;HPM_P1;HPM_P2
2023/07/25 00:02:10;;;;;;;0.70;0.70;;;;;;;20.05;92.67;94631.47;4353535;32;20198;-60
2023/07/25 00:04:35;;;;;;;0.70;0.70;;;;;;;20.04;92.61;94624.53;4346254;32;20211;-60
2023/07/25 00:07:01;;;;;;;1.13;1.13;;;;;;;20.08;92.84;94626.13;4358858;32;20189;-60
2023/07/25 00:09:26;;;;;;;2.13;1.97;;;;;;;20.16;92.08;94622.31;4361200;32;20200;-60
2023/07/25 00:11:51;;;;;;;2.00;1.40;;;;;;;20.10;92.27;94607.66;4346279;32;20197;-60
2023/07/25 00:14:17;;;;;;;0.57;0.57;;;;;;;20.24;91.82;94598.94;4354448;32;20278;-60
2023/07/25 00:16:42;;;;;;;0.90;0.90;;;;;;;20.30;91.19;94588.59;4365207;32;20197;-60
2023/07/25 00:19:07;;;;;;;0.53;0.53;;;;;;;20.16;91.88;94578.47;4360017;32;20189;-60
2023/07/25 00:21:33;;;;;;;0.77;0.77;;;;;;;20.14;92.10;94602.31;4347740;32;20209;-60
2023/07/25 00:23:58;;;;;;;0.60;0.60;;;;;;;19.85;93.09;94604.72;4351226;32;20204;-60
2023/07/25 00:26:23;;;;;;;0.73;0.73;;;;;;;19.89;92.85;94610.16;4350255;32;20207;-60
2023/07/25 00:28:48;;;;;;;0.53;0.53;;;;;;;19.95;92.66;94616.00;4361241;32;20251;-60
2023/07/25 00:31:14;;;;;;;1.07;0.97;;;;;;;19.88;92.99;94606.69;4347825;32;20291;-60
2023/07/25 00:33:39;;;;;;;0.50;0.50;;;;;;;19.84;92.88;94600.50;4340260;32;20264;-61
2023/07/25 00:36:04;;;;;;;0.93;0.93;;;;;;;19.75;93.65;94597.31;4351195;32;20197;-60
2023/07/25 00:38:30;;;;;;;0.50;0.50;;;;;;;19.93;92.75;94599.44;4354425;32;20189;-60
2023/07/25 00:40:55;;;;;;;0.60;0.60;;;;;;;19.86;92.77;94595.50;4360069;32;20241;-60
2023/07/25 00:43:20;;;;;;;0.90;0.90;;;;;;;19.89;92.76;94592.09;4359174;32;20189;-60
2023/07/25 00:45:46;;;;;;;1.33;1.23;;;;;;;19.95;92.94;94595.22;4336856;32;20236;-61
2023/07/25 00:48:12;;;;;;;0.93;0.93;;;;;;;19.89;93.07;94600.16;4343221;32;20250;-60
2023/07/25 00:50:37;;;;;;;4.43;1.37;;;;;;;20.09;92.13;94605.34;4354385;32;20244;-60
2023/07/25 00:53:03;;;;;;;0.67;0.67;;;;;;;20.04;92.19;94586.81;4348608;32;20210;-61
2023/07/25 00:55:29;;;;;;;0.60;0.60;;;;;;;20.01;92.23;94582.19;4356107;32;20288;-60
2023/07/25 00:57:54;;;;;;;0.50;0.50;;;;;;;19.93;92.25;94585.97;4359681;32;20256;-60
2023/07/25 01:00:20;;;;;;;0.60;0.60;;;;;;;19.97;92.11;94586.75;4359899;32;20196;-60
2023/07/25 01:02:45;;;;;;;1.20;1.10;;;;;;;19.87;92.36;94572.84;4357680;32;20231;-60
2023/07/25 01:05:11;;;;;;;1.50;1.50;;;;;;;19.92;92.32;94569.03;4346919;32;20219;-60
2023/07/25 01:07:38;;;;;;;0.83;0.83;;;;;;;20.03;91.59;94564.50;4351834;32;20193;-61
2023/07/25 01:10:04;;;;;;;0.70;0.70;;;;;;;20.13;90.95;94568.44;4356651;32;20219;-60
2023/07/25 01:12:29;;;;;;;0.87;0.87;;;;;;;19.95;91.36;94572.91;4345196;32;20197;-60
2023/07/25 01:14:55;;;;;;;0.40;0.40;;;;;;;20.08;91.34;94560.69;4346628;32;20194;-60
2023/07/25 01:17:23;;;;;;;0.40;0.40;;;;;;;20.09;90.88;94568.41;4346342;32;20197;-60
2023/07/25 01:19:50;;;;;;;0.83;0.83;;;;;;;20.17;90.56;94555.75;4346688;32;20193;-60
2023/07/25 01:22:16;;;;;;;0.83;0.83;;;;;;;20.09;90.89;94552.25;4345721;32;20210;-60
2023/07/25 01:24:46;;;;;;;2.93;1.37;;;;;;;20.20;90.48;94553.09;4352057;32;20310;-60
2023/07/25 01:27:12;;;;;;;1.33;0.97;;;;;;;20.20;90.38;94541.56;4361796;32;20181;-60
2023/07/25 01:29:37;;;;;;;0.70;0.70;;;;;;;20.07;90.65;94546.47;4362945;32;20231;-60
2023/07/25 01:32:03;;;;;;;0.80;0.50;;;;;;;19.96;91.06;94547.50;4359360;32;20189;-60
2023/07/25 01:34:28;;;;;;;1.13;1.13;;;;;;;20.09;90.45;94541.47;4341801;32;20204;-60
2023/07/25 01:36:54;;;;;;;0.77;0.50;;;;;;;20.09;90.52;94546.09;4343497;32;20224;-60
2023/07/25 01:39:19;;;;;;;0.60;0.60;;;;;;;19.98;90.87;94550.59;4342591;32;20219;-60
2023/07/25 01:41:45;;;;;;;0.50;0.50;;;;;;;19.98;91.14;94558.69;4338694;32;20205;-61
2023/07/25 01:44:11;;;;;;;0.97;0.73;;;;;;;19.99;91.14;94562.91;4349725;32;20198;-61
2023/07/25 01:46:39;;;;;;;0.50;0.50;;;;;;;20.04;90.78;94571.44;4362027;32;20215;-60
2023/07/25 01:49:04;;;;;;;0.83;0.83;;;;;;;19.95;90.84;94568.31;4342234;32;20188;-60
2023/07/25 01:51:29;;;;;;;0.73;0.73;;;;;;;19.91;91.15;94567.50;4357833;32;20208;-60
2023/07/25 01:53:58;;;;;;;0.67;0.67;;;;;;;19.98;91.09;94577.53;4357738;32;20197;-60
2023/07/25 01:56:23;;;;;;;0.60;0.60;;;;;;;19.85;91.10;94577.81;4347402;32;20196;-60
2023/07/25 01:58:48;;;;;;;0.37;0.37;;;;;;;19.88;91.39;94571.69;4355832;32;20224;-61
2023/07/25 02:01:14;;;;;;;0.70;0.70;;;;;;;19.85;91.10;94568.97;4347701;32;20192;-60
2023/07/25 02:03:39;;;;;;;0.87;0.87;;;;;;;19.91;91.56;94556.72;4342681;32;20189;-61
2023/07/25 02:06:04;;;;;;;1.50;1.40;;;;;;;19.82;91.37;94557.00;4352637;32;20204;-60
2023/07/25 02:08:30;;;;;;;2.07;1.27;;;;;;;19.77;91.30;94543.87;4328719;32;20253;-60
2023/07/25 02:10:55;;;;;;;1.37;1.27;;;;;;;19.99;90.90;94530.59;4346958;32;20185;-60
2023/07/25 02:13:20;;;;;;;0.97;0.97;;;;;;;20.06;90.35;94519.91;4354103;32;20189;-60
2023/07/25 02:15:46;;;;;;;0.87;0.87;;;;;;;20.00;90.18;94524.06;4356949;32;20216;-60
2023/07/25 02:18:11;;;;;;;1.37;1.27;;;;;;;19.74;90.78;94504.28;4356086;32;20188;-61
2023/07/25 02:20:36;;;;;;;1.57;1.47;;;;;;;19.89;91.00;94505.94;4358868;32;20211;-61
2023/07/25 02:23:02;;;;;;;1.37;0.83;;;;;;;19.85;90.96;94502.44;4349735;32;20185;-60
2023/07/25 02:25:28;;;;;;;0.87;0.87;;;;;;;19.89;91.19;94478.22;4368642;32;20273;-61
2023/07/25 02:27:54;;;;;;;1.00;1.00;;;;;;;20.00;89.97;94446.75;4350668;32;20193;-60
2023/07/25 02:30:21;;;;;;;0.47;0.47;;;;;;;20.00;89.45;94430.59;4362297;32;20199;-61
2023/07/25 02:32:46;;;;;;;0.90;0.90;;;;;;;20.01;89.34;94453.69;4370329;32;20404;-60
2023/07/25 02:35:12;;;;;;;0.50;0.50;;;;;;;20.05;89.92;94459.87;4370197;32;20181;-61
2023/07/25 02:37:38;;;;;;;0.80;0.80;;;;;;;20.08;89.84;94453.75;4371723;32;20258;-61
2023/07/25 02:40:04;;;;;;;0.30;0.30;;;;;;;19.79;91.03;94468.13;4365991;32;20234;-60
2023/07/25 02:42:29;;;;;;;0.50;0.50;;;;;;;19.95;91.00;94486.75;4357183;32;20197;-61
2023/07/25 02:44:54;;;;;;;0.77;0.77;;;;;;;19.95;90.86;94486.75;4361006;32;20201;-61
2023/07/25 02:47:20;;;;;;;1.33;1.17;;;;;;;19.81;91.51;94490.84;4356111;32;20197;-60
2023/07/25 02:49:45;;;;;;;1.07;0.97;;;;;;;19.96;90.86;94488.25;4359786;32;20290;-60
2023/07/25 02:52:10;;;;;;;0.40;0.40;;;;;;;19.92;90.82;94495.56;4367894;32;20181;-61
2023/07/25 02:54:36;;;;;;;0.77;0.77;;;;;;;19.91;90.61;94492.09;4371178;32;20208;-61
2023/07/25 02:57:01;;;;;;;0.50;0.50;;;;;;;19.80;91.05;94502.75;4369325;32;20197;-60
2023/07/25 02:59:29;;;;;;;0.47;0.47;;;;;;;19.77;91.36;94514.28;4356477;32;20217;-61
2023/07/25 03:01:54;;;;;;;1.57;1.00;;;;;;;19.77;91.06;94508.13;4367772;32;20189;-61
2023/07/25 03:04:19;;;;;;;0.43;0.43;;;;;;;19.68;90.74;94494.22;4356594;32;20173;-61
2023/07/25 03:06:44;;;;;;;1.20;1.20;;;;;;;19.85;90.38;94480.91;4357384;32;20189;-60
2023/07/25 03:09:10;;;;;;;0.70;0.70;;;;;;;19.83;90.28;94472.41;4356981;32;20185;-60
2023/07/25 03:11:35;;;;;;;0.67;0.67;;;;;;;19.84;90.22;94471.28;4344014;32;20203;-61
2023/07/25 03:14:00;;;;;;;1.40;0.83;;;;;;;19.98;89.90;94461.75;4355108;32;20302;-61
2023/07/25 03:16:26;;;;;;;0.93;0.93;;;;;;;19.84;89.92;94465.13;4355425;32;20200;-60
2023/07/25 03:18:51;;;;;;;0.50;0.50;;;;;;;19.76;90.93;94466.19;4354283;32;20239;-60
2023/07/25 03:21:16;;;;;;;1.30;0.77;;;;;;;19.61;91.19;94468.00;4333423;32;20221;-61
2023/07/25 03:23:42;;;;;;;0.80;0.80;;;;;;;19.52;91.63;94462.16;4348836;32;20193;-60
2023/07/25 03:26:07;;;;;;;0.50;0.50;;;;;;;19.63;91.60;94463.03;4335457;33;20205;-61
2023/07/25 03:28:32;;;;;;;0.17;0.17;;;;;;;19.78;90.80;94461.22;4353389;32;20204;-61
2023/07/25 03:30:58;;;;;;;0.77;0.77;;;;;;;19.88;90.20;94460.53;4345384;32;20280;-60
2023/07/25 03:33:23;;;;;;;0.43;0.43;;;;;;;19.96;90.00;94458.66;4343271;32;20189;-60
2023/07/25 03:35:48;;;;;;;0.23;0.23;;;;;;;19.86;89.67;94450.13;4338531;32;20229;-60
2023/07/25 03:38:14;;;;;;;1.33;0.90;;;;;;;19.87;89.86;94453.59;4350131;32;20192;-60
2023/07/25 03:40:39;;;;;;;0.77;0.77;;;;;;;19.75;90.25;94462.72;4344146;32;20186;-60
2023/07/25 03:43:04;;;;;;;0.63;0.63;;;;;;;19.80;90.21;94457.00;4346372;32;20193;-60
2023/07/25 03:45:30;;;;;;;0.30;0.30;;;;;;;19.75;90.11;94462.72;4350303;32;20204;-60
2023/07/25 03:47:55;;;;;;;1.27;0.80;;;;;;;19.83;89.94;94469.72;4344817;32;20215;-60
2023/07/25 03:50:20;;;;;;;3.50;1.10;;;;;;;19.81;90.04;94463.94;4360750;32;20203;-61
2023/07/25 03:52:45;;;;;;;0.40;0.40;;;;;;;19.79;89.66;94460.84;4338665;32;20200;-60
2023/07/25 03:55:11;;;;;;;0.63;0.63;;;;;;;19.84;89.63;94467.81;4351509;32;20277;-60
2023/07/25 03:57:36;;;;;;;0.83;0.83;;;;;;;19.86;89.42;94458.22;4352500;32;20240;-60
2023/07/25 04:00:02;;;;;;;0.60;0.60;;;;;;;19.64;89.27;94456.50;4341500;32;20264;-60
2023/07/25 04:02:27;;;;;;;3.27;0.93;;;;;;;19.66;89.70;94456.12;4362296;32;20244;-60
2023/07/25 04:04:52;;;;;;;2.00;1.13;;;;;;;19.64;89.54;94456.50;4361587;32;20243;-60
2023/07/25 04:07:18;;;;;;;4.43;1.07;;;;;;;19.61;89.92;94459.91;4362986;32;20229;-60
2023/07/25 04:09:43;;;;;;;1.00;1.00;;;;;;;19.49;89.91;94460.19;4362150;32;20193;-60
2023/07/25 04:12:08;;;;;;;0.70;0.70;;;;;;;19.64;89.81;94471.88;4346620;32;20220;-63
2023/07/25 04:14:34;;;;;;;0.80;0.80;;;;;;;19.56;88.94;94457.56;4358297;32;20193;-60
2023/07/25 04:16:59;;;;;;;4.13;1.37;;;;;;;19.72;89.21;94468.88;4362065;32;20199;-60
2023/07/25 04:19:24;;;;;;;0.97;0.97;;;;;;;19.60;88.89;94463.75;4340970;32;20212;-61
2023/07/25 04:21:50;;;;;;;0.67;0.67;;;;;;;19.72;88.65;94458.09;4337734;32;20193;-60
2023/07/25 04:24:15;;;;;;;0.63;0.63;;;;;;;19.63;89.19;94463.03;4356464;32;20239;-60
2023/07/25 04:26:40;;;;;;;0.53;0.53;;;;;;;19.42;90.23;94465.50;4361283;32;20185;-60
2023/07/25 04:29:05;;;;;;;0.90;0.90;;;;;;;19.44;90.80;94463.97;4346449;32;20189;-60
2023/07/25 04:31:31;;;;;;;0.83;0.83;;;;;;;19.55;90.27;94477.53;4358701;32;20231;-60
2023/07/25 04:33:56;;;;;;;2.53;0.93;;;;;;;19.59;89.57;94474.91;4341024;32;20287;-61
2023/07/25 04:36:22;;;;;;;0.77;0.77;;;;;;;19.68;88.95;94476.16;4339344;32;20193;-60
2023/07/25 04:38:47;;;;;;;5.00;1.23;;;;;;;19.60;89.51;94477.22;4351613;32;20213;-60
2023/07/25 04:41:12;;;;;;;5.70;1.03;;;;;;;19.59;89.37;94474.91;4349822;32;20188;-60
2023/07/25 04:43:38;;;;;;;0.37;0.37;;;;;;;19.55;90.01;94480.22;4357989;32;20202;-60
2023/07/25 04:46:03;;;;;;;0.80;0.80;;;;;;;19.39;90.05;94476.97;4331435;32;20236;-60
2023/07/25 04:48:28;;;;;;;0.70;0.70;;;;;;;19.38;89.42;94478.91;4357251;32;20273;-60
2023/07/25 04:50:53;;;;;;;1.47;1.37;;;;;;;19.41;88.94;94475.47;4335544;32;20181;-60
2023/07/25 04:53:19;;;;;;;1.23;1.20;;;;;;;19.25;89.53;94460.72;4349032;32;20193;-60
2023/07/25 04:55:44;;;;;;;16.03;1.00;;;;;;;19.49;89.37;94462.88;4353380;32;20223;-60
2023/07/25 04:58:10;;;;;;;0.87;0.87;;;;;;;19.49;88.93;94457.50;4361039;32;20227;-60
2023/07/25 05:00:35;;;;;;;1.20;1.00;;;;;;;19.42;88.86;94460.09;4347776;32;20193;-60
2023/07/25 05:03:00;;;;;;;20.43;2.07;;;;;;;19.37;88.52;94460.44;4355035;32;20220;-61
2023/07/25 05:05:26;;;;;;;0.90;0.90;;;;;;;19.27;88.52;94469.19;4354906;32;20207;-60
2023/07/25 05:07:51;;;;;;;0.80;0.80;;;;;;;19.44;88.37;94453.22;4358680;32;20189;-60
2023/07/25 05:10:16;;;;;;;1.03;1.03;;;;;;;19.27;88.60;94447.69;4348251;32;20294;-60
2023/07/25 05:12:42;;;;;;;1.10;1.10;;;;;;;19.20;89.87;94449.16;4339747;32;20224;-60
2023/07/25 05:15:07;;;;;;;1.37;1.27;;;;;;;19.08;87.81;94448.62;4362229;32;20189;-60
2023/07/25 05:17:33;;;;;;;0.53;0.53;;;;;;;19.08;89.53;94435.97;4350281;32;20193;-60
2023/07/25 05:19:58;;;;;;;2.10;0.93;;;;;;;18.88;89.60;94429.22;4345237;32;20286;-60
2023/07/25 05:22:23;;;;;;;1.57;0.67;;;;;;;19.14;89.83;94425.62;4359589;32;20241;-60
2023/07/25 05:24:48;;;;;;;1.13;1.13;;;;;;;19.14;89.05;94412.97;4350175;32;20193;-60
2023/07/25 05:27:15;;;;;;;0.77;0.77;;;;;;;19.00;88.64;94406.69;4347341;32;20180;-62
2023/07/25 05:29:40;;;;;;;2.43;1.70;;;;;;;19.11;89.79;94404.88;4342934;32;20255;-60
2023/07/25 05:32:06;;;;;;;0.87;0.87;;;;;;;18.84;89.37;94405.00;4344431;32;20200;-60
2023/07/25 05:34:31;;;;;;;0.40;0.40;;;;;;;18.69;89.69;94407.91;4354667;32;20213;-60
2023/07/25 05:36:57;;;;;;;1.33;0.70;;;;;;;18.68;90.88;94411.72;4344593;32;20235;-60
2023/07/25 05:39:22;;;;;;;0.87;0.87;;;;;;;18.86;91.20;94404.63;4337918;32;20212;-60
2023/07/25 05:41:47;;;;;;;0.90;0.90;;;;;;;19.18;90.46;94402.25;4343622;32;20246;-62
2023/07/25 05:44:13;;;;;;;0.80;0.80;;;;;;;19.31;89.78;94390.09;4338486;32;20201;-60
2023/07/25 05:46:38;;;;;;;0.40;0.40;;;;;;;19.40;89.57;94385.16;4346639;32;20208;-62
2023/07/25 05:49:03;;;;;;;0.73;0.73;;;;;;;19.26;88.55;94382.34;4357879;32;20193;-62
2023/07/25 05:51:29;;;;;;;1.07;1.07;;;;;;;19.41;88.32;94367.09;4356926;32;20190;-63
2023/07/25 05:53:54;;;;;;;1.13;1.13;;;;;;;19.36;89.05;94352.06;4358957;32;20224;-62
2023/07/25 05:56:19;;;;;;;1.00;1.00;;;;;;;19.53;88.32;94345.31;4345253;32;20255;-63
2023/07/25 05:58:44;;;;;;;10.23;1.00;;;;;;;19.39;88.04;94332.50;4344161;32;20181;-62
2023/07/25 06:01:11;;;;;;;0.97;0.80;;;;;;;19.17;89.56;94328.09;4342987;32;20185;-63
2023/07/25 06:03:36;;;;;;;0.80;0.80;;;;;;;18.86;89.78;94318.62;4348702;32;20243;-64
2023/07/25 06:06:01;;;;;;;0.80;0.80;;;;;;;18.71;90.93;94315.00;4344158;32;20264;-62
2023/07/25 06:08:27;;;;;;;0.60;0.60;;;;;;;18.87;91.45;94320.16;4352798;32;20292;-63
2023/07/25 06:10:52;;;;;;;0.60;0.60;;;;;;;18.91;90.55;94339.78;4342978;32;20197;-63
2023/07/25 06:13:18;;;;;;;0.70;0.70;;;;;;;18.69;91.50;94346.09;4339615;32;20392;-62
2023/07/25 06:15:43;;;;;;;0.90;0.90;;;;;;;18.78;92.34;94341.97;4353322;32;20197;-61
2023/07/25 06:18:08;;;;;;;0.50;0.50;;;;;;;18.78;91.86;94325.84;4358688;32;20269;-65
2023/07/25 06:20:34;;;;;;;1.10;1.10;;;;;;;18.58;92.42;94316.41;4355778;32;20189;-62
2023/07/25 06:23:00;;;;;;;7.43;4.60;;;;;;;18.49;93.53;94305.97;4344898;32;20197;-61
2023/07/25 06:25:26;;;;;;;0.40;0.40;;;;;;;18.61;93.66;94298.81;4356684;32;20219;-62
2023/07/25 06:27:52;;;;;;;1.13;1.13;;;;;;;18.77;92.27;94283.97;4358007;32;20180;-61
2023/07/25 06:30:17;;;;;;;0.83;0.83;;;;;;;18.94;91.28;94301.41;4348970;32;20221;-62
2023/07/25 06:32:42;;;;;;;1.40;1.30;;;;;;;19.04;91.02;94311.47;4358152;32;20231;-62
2023/07/25 06:35:08;;;;;;;3.93;1.30;;;;;;;18.95;90.61;94313.69;4360802;32;20199;-62
2023/07/25 06:37:34;;;;;;;1.17;0.90;;;;;;;18.93;90.46;94299.84;4345743;32;20208;-61
2023/07/25 06:40:00;;;;;;;0.90;0.90;;;;;;;18.85;89.99;94303.62;4345997;32;20277;-61
2023/07/25 06:42:28;;;;;;;2.93;1.27;;;;;;;18.78;91.09;94285.53;4345458;32;20295;-62
2023/07/25 06:44:54;;;;;;;0.90;0.90;;;;;;;18.94;90.43;94285.28;4341470;32;20283;-62
2023/07/25 06:47:20;;;;;;;0.90;0.90;;;;;;;19.00;90.27;94288.41;4342686;32;20212;-62
2023/07/25 06:49:45;;;;;;;1.17;1.07;;;;;;;18.84;90.73;94296.72;4339639;32;20185;-62
2023/07/25 06:52:10;;;;;;;0.93;0.93;;;;;;;18.86;90.71;94299.81;4343950;32;20288;-62
2023/07/25 06:54:37;;;;;;;1.00;1.00;;;;;;;18.94;90.25;94301.41;4348759;32;20189;-62
2023/07/25 06:57:03;;;;;;;1.30;1.17;;;;;;;18.82;91.83;94315.13;4357830;32;20185;-62
2023/07/25 06:59:29;;;;;;;4.20;0.80;;;;;;;18.75;91.78;94320.44;4345830;32;20357;-62
2023/07/25 07:01:55;;;;;;;0.73;0.73;;;;;;;18.92;91.46;94324.41;4359922;32;20230;-62
2023/07/25 07:04:20;;;;;;;1.10;1.00;;;;;;;19.04;90.90;94335.69;4348523;32;20230;-62
2023/07/25 07:06:46;;;;;;;0.77;0.77;;;;;;;19.07;90.63;94347.63;4344754;32;20200;-62
2023/07/25 07:09:11;;;;;;;0.80;0.80;;;;;;;19.02;90.73;94351.41;4349261;32;20263;-62
2023/07/25 07:11:36;;;;;;;0.90;0.90;;;;;;;19.18;90.38;94360.00;4358333;32;20223;-62
2023/07/25 07:14:01;;;;;;;0.50;0.50;;;;;;;19.14;90.77;94372.62;4349368;32;20252;-62
2023/07/25 07:16:27;;;;;;;1.23;1.23;;;;;;;19.21;90.61;94374.63;4352117;32;20232;-62
2023/07/25 07:18:52;;;;;;;2.77;1.63;;;;;;;19.14;90.63;94375.31;4362687;32;20232;-62
2023/07/25 07:21:18;;;;;;;1.60;0.90;;;;;;;19.23;90.11;94383.87;4348574;32;20240;-62
2023/07/25 07:23:43;;;;;;;1.80;1.20;;;;;;;19.11;89.98;94386.84;4361327;32;20219;-62
2023/07/25 07:26:08;;;;;;;7.07;0.93;;;;;;;19.17;90.37;94379.97;4363334;32;20276;-66
2023/07/25 07:28:34;;;;;;;0.83;0.83;;;;;;;19.20;89.59;94384.59;4363081;32;20185;-63
2023/07/25 07:30:59;;;;;;;1.43;1.40;;;;;;;19.21;89.65;94380.00;4347512;32;20207;-62
2023/07/25 07:33:26;;;;;;;7.93;1.27;;;;;;;19.29;89.07;94394.28;4360009;32;20188;-62
2023/07/25 07:35:51;;;;;;;24.73;2.87;;;;;;;19.29;89.23;94400.44;4348071;32;20208;-62
2023/07/25 07:38:16;;;;;;;0.63;0.63;;;;;;;19.31;89.10;94397.38;4360716;32;20245;-62
2023/07/25 07:40:44;;;;;;;0.30;0.30;;;;;;;19.43;87.98;94399.78;4361797;32;20209;-62
2023/07/25 07:43:10;;;;;;;3.40;0.77;;;;;;;19.33;89.13;94403.16;4348238;32;20189;-63
2023/07/25 07:45:35;;;;;;;1.03;0.80;;;;;;;19.52;88.32;94403.75;4361356;32;20204;-62
2023/07/25 07:48:00;;;;;;;1.30;1.20;;;;;;;19.47;88.18;94405.97;4360066;32;20223;-62
2023/07/25 07:50:28;;;;;;;1.00;1.00;;;;;;;19.52;89.12;94394.91;4355335;32;20207;-62
2023/07/25 07:52:54;;;;;;;0.87;0.87;;;;;;;19.32;89.73;94407.78;4356599;32;20236;-61
2023/07/25 07:55:19;;;;;;;0.47;0.47;;;;;;;19.47;89.16;94432.88;4361824;32;20197;-62
2023/07/25 07:57:46;;;;;;;0.97;0.97;;;;;;;19.56;89.62;94427.97;4361568;32;20235;-62
2023/07/25 08:00:14;;;;;;;0.30;0.30;;;;;;;19.63;89.49;94425.34;4348413;32;20197;-61
2023/07/25 08:02:41;;;;;;;0.30;0.30;;;;;;;19.58;89.22;94428.38;4347854;32;20219;-62
2023/07/25 08:05:07;;;;;;;2.23;1.17;;;;;;;19.66;88.94;94416.53;4339691;32;20205;-61
2023/07/25 08:07:32;;;;;;;23.67;8.33;;;;;;;19.67;89.21;94420.00;4345090;32;20190;-62
2023/07/25 08:09:57;;;;;;;2.30;1.10;;;;;;;19.52;89.37;94416.44;4361750;32;20248;-62
2023/07/25 08:12:23;;;;;;;9.13;1.70;;;;;;;19.52;89.91;94419.13;4346374;32;20197;-61
2023/07/25 08:14:48;;;;;;;1.50;0.93;;;;;;;19.53;89.60;94428.75;4358878;32;20196;-62
2023/07/25 08:17:14;;;;;;;1.53;0.67;;;;;;;19.40;89.39;94422.03;4356321;32;20201;-61
2023/07/25 08:19:40;;;;;;;0.40;0.40;;;;;;;19.38;89.03;94429.72;4344484;32;20200;-62
2023/07/25 08:22:05;;;;;;;0.43;0.43;;;;;;;19.38;89.07;94425.09;4347715;32;20195;-61
2023/07/25 08:24:34;;;;;;;0.50;0.50;;;;;;;19.34;89.09;94420.81;4345133;32;20185;-62
2023/07/25 08:26:59;;;;;;;0.70;0.70;;;;;;;19.15;89.59;94429.87;4347236;32;20279;-62
2023/07/25 08:29:25;;;;;;;0.73;0.73;;;;;;;19.12;88.80;94423.31;4343786;32;20248;-62
2023/07/25 08:31:51;;;;;;;0.53;0.53;;;;;;;19.17;89.15;94438.34;4347385;32;20185;-62
2023/07/25 08:34:16;;;;;;;0.43;0.43;;;;;;;19.14;89.67;94447.91;4360518;32;20263;-62
2023/07/25 08:36:42;;;;;;;0.87;0.87;;;;;;;19.00;89.34;94450.47;4359932;32;20204;-61
2023/07/25 08:39:07;;;;;;;1.93;0.97;;;;;;;18.87;89.80;94431.16;4361412;32;20182;-61
2023/07/25 08:41:37;;;;;;;0.77;0.77;;;;;;;18.61;89.88;94439.28;4345966;32;20193;-61
2023/07/25 08:44:04;;;;;;;0.70;0.70;;;;;;;18.48;91.06;94444.09;4361059;32;20248;-62
2023/07/25 08:46:31;;;;;;;0.70;0.70;;;;;;;18.66;89.37;94438.19;4348133;32;20296;-61
2023/07/25 08:49:01;;;;;;;0.87;0.87;;;;;;;18.64;89.85;94440.47;4346948;32;20193;-62
2023/07/25 08:51:27;;;;;;;2.40;1.33;;;;;;;18.76;89.48;94438.31;4358755;32;20275;-62
2023/07/25 08:54:00;;;;;;;0.50;0.50;;;;;;;18.77;89.19;94441.75;4358199;32;20254;-62
2023/07/25 08:56:27;;;;;;;0.40;0.40;;;;;;;18.75;88.74;94438.66;4346594;32;20204;-61
2023/07/25 08:58:53;;;;;;;1.17;0.83;;;;;;;18.80;88.30;94452.56;4360788;32;20209;-62
2023/07/25 09:01:21;;;;;;;0.23;0.23;;;;;;;18.66;88.61;94459.69;4345542;32;20189;-61
2023/07/25 09:03:47;;;;;;;0.93;0.93;;;;;;;18.75;88.69;94460.16;4346518;32;20228;-61
2023/07/25 09:06:13;;;;;;;0.50;0.33;;;;;;;18.51;89.00;94464.81;4356458;32;20200;-61
2023/07/25 09:08:39;;;;;;;0.93;0.93;;;;;;;18.55;88.66;94467.56;4360162;32;20193;-60
2023/07/25 09:11:07;;;;;;;0.97;0.83;;;;;;;18.67;89.11;94464.69;4359219;32;20201;-61
2023/07/25 09:13:33;;;;;;;0.60;0.60;;;;;;;18.72;88.65;94468.94;4344632;32;20197;-60
2023/07/25 09:15:59;;;;;;;0.70;0.70;;;;;;;18.70;88.58;94469.34;4345912;32;20323;-61
2023/07/25 09:18:24;;;;;;;2.93;0.97;;;;;;;18.66;88.87;94475.81;4357185;32;20235;-60
2023/07/25 09:20:50;;;;;;;0.67;0.67;;;;;;;18.70;88.35;94476.63;4346267;32;20208;-60
2023/07/25 09:23:22;;;;;;;0.43;0.43;;;;;;;18.71;88.14;94472.78;4360956;32;20215;-60
2023/07/25 09:25:48;;;;;;;0.60;0.60;;;;;;;18.74;88.22;94474.75;4360324;32;20212;-60
2023/07/25 09:28:13;;;;;;;0.83;0.80;;;;;;;18.58;88.86;94466.84;4346513;32;20200;-60
2023/07/25 09:30:46;;;;;;;0.40;0.40;;;;;;;18.62;89.33;94462.31;4359062;32;20304;-60
2023/07/25 09:33:24;;;;;;;0.23;0.23;;;;;;;18.83;87.69;94467.94;4345935;32;20204;-60
2023/07/25 09:35:50;;;;;;;0.50;0.50;;;;;;;18.61;89.04;94462.69;4346205;32;20189;-60
2023/07/25 09:38:15;;;;;;;0.50;0.50;;;;;;;18.69;89.29;94456.28;4343395;32;20211;-60
2023/07/25 09:40:41;;;;;;;0.53;0.53;;;;;;;18.53;88.72;94451.81;4347177;32;20193;-60
2023/07/25 09:43:06;;;;;;;0.77;0.77;;;;;;;18.81;89.11;94447.97;4343996;32;20197;-60
2023/07/25 09:45:36;;;;;;;3.93;2.67;;;;;;;18.77;88.23;94449.81;4340792;32;20192;-59
2023/07/25 09:48:02;;;;;;;1.20;0.70;;;;;;;18.92;87.27;94445.37;4346497;32;20225;-60
2023/07/25 09:50:33;;;;;;;1.27;1.17;;;;;;;18.73;87.98;94449.00;4355695;32;20208;-60
2023/07/25 09:53:01;;;;;;;2.13;1.13;;;;;;;18.60;87.93;94453.84;4344482;32;20303;-60
2023/07/25 09:55:27;;;;;;;0.30;0.30;;;;;;;18.82;87.72;94444.13;4341235;32;20198;-60
2023/07/25 09:57:53;;;;;;;26.60;8.20;;;;;;;18.95;86.87;94444.66;4363574;32;20263;-59
2023/07/25 10:00:18;;;;;;;2.10;1.97;;;;;;;19.02;85.41;94448.19;4343750;32;20233;-62
2023/07/25 10:02:44;;;;;;;3.03;1.13;;;;;;;19.07;84.42;94445.19;4359529;32;20180;-62
2023/07/25 10:05:09;;;;;;;0.60;0.60;;;;;;;18.95;86.37;94442.72;4346981;32;20218;-64
2023/07/25 10:07:36;;;;;;;0.83;0.70;;;;;;;18.88;86.69;94437.28;4348967;32;20228;-62
2023/07/25 10:10:03;;;;;;;0.73;0.73;;;;;;;18.80;87.01;94435.66;4358392;32;20197;-62
2023/07/25 10:12:29;;;;;;;0.77;0.77;;;;;;;18.91;86.30;94436.56;4345086;32;21595;-62
2023/07/25 10:14:56;;;;;;;0.73;0.73;;;;;;;19.01;85.00;94440.50;4358144;32;20228;-62
2023/07/25 10:17:24;;;;;;;0.63;0.63;;;;;;;19.03;85.12;94438.22;4360990;32;20248;-61
2023/07/25 10:19:54;;;;;;;0.70;0.70;;;;;;;19.18;84.84;94437.97;4357348;32;20193;-62
2023/07/25 10:22:40;;;;;;;0.50;0.50;;;;;;;19.16;83.49;94434.09;4352940;32;20215;-61
2023/07/25 10:25:10;;;;;;;0.80;0.80;;;;;;;19.25;80.73;94431.13;4346894;32;20248;-62
2023/07/25 10:27:36;;;;;;;0.67;0.67;;;;;;;19.33;81.30;94432.75;4344661;32;20180;-61
2023/07/25 10:30:02;;;;;;;0.40;0.40;;;;;;;19.50;80.56;94432.94;4360154;32;20259;-62
2023/07/25 10:32:45;;;;;;;0.93;0.77;;;;;;;19.49;80.04;94430.59;4359028;32;20239;-60
2023/07/25 10:35:10;;;;;;;0.60;0.60;;;;;;;19.68;79.61;94430.37;4344431;32;20243;-60
2023/07/25 10:37:43;;;;;;;0.33;0.33;;;;;;;19.65;79.59;94433.81;4346924;32;20193;-62
2023/07/25 10:40:09;;;;;;;0.30;0.30;;;;;;;19.78;78.82;94435.06;4349631;32;20218;-63
2023/07/25 10:42:51;;;;;;;0.70;0.70;;;;;;;19.82;77.64;94425.09;4358985;32;20192;-62
2023/07/25 10:45:29;;;;;;;0.77;0.77;;;;;;;19.75;77.83;94438.50;4348700;32;20244;-60
2023/07/25 10:47:59;;;;;;;0.47;0.40;;;;;;;19.64;78.60;94444.97;4358675;32;20197;-60
2023/07/25 10:50:27;;;;;;;0.73;0.73;;;;;;;19.52;77.45;94435.25;4359049;32;20197;-60
2023/07/25 10:52:53;;;;;;;0.30;0.30;;;;;;;19.65;78.03;94425.75;4362494;32;20216;-60
2023/07/25 10:55:18;;;;;;;0.60;0.60;;;;;;;19.89;78.05;94429.78;4347562;32;20193;-60
2023/07/25 10:58:09;;;;;;;0.73;0.60;;;;;;;20.16;77.84;94417.62;4360497;32;20185;-60
2023/07/25 11:00:36;;;;;;;2.40;1.00;;;;;;;20.31;77.57;94423.09;4337086;32;20178;-61
2023/07/25 11:03:27;;;;;;;5.40;1.10;;;;;;;20.43;76.49;94418.19;4342330;32;20192;-60
2023/07/25 11:06:12;;;;;;;0.40;0.40;;;;;;;20.36;77.48;94412.75;4348813;32;20185;-60
2023/07/25 11:08:41;;;;;;;0.40;0.40;;;;;;;20.15;76.26;94421.50;4360827;32;20206;-60
2023/07/25 11:11:08;;;;;;;0.40;0.40;;;;;;;20.03;76.61;94416.41;4349870;32;20194;-60
2023/07/25 11:13:38;;;;;;;0.40;0.40;;;;;;;20.04;76.49;94419.84;4350777;32;20212;-60
2023/07/25 11:16:05;;;;;;;0.43;0.43;;;;;;;19.95;77.77;94432.91;4362864;32;20193;-60
2023/07/25 11:18:33;;;;;;;0.53;0.50;;;;;;;19.85;77.22;94418.97;4347853;32;20207;-60
2023/07/25 11:21:07;;;;;;;0.40;0.40;;;;;;;19.79;77.23;94417.00;4362492;32;20193;-60
2023/07/25 11:23:33;;;;;;;0.33;0.33;;;;;;;19.82;77.87;94419.72;4361870;32;20189;-61
2023/07/25 11:26:02;;;;;;;0.37;0.37;;;;;;;19.88;77.01;94426.31;4361176;32;20296;-60
2023/07/25 11:28:28;;;;;;;2.07;1.10;;;;;;;20.05;76.86;94405.25;4362121;32;20241;-61
2023/07/25 11:30:55;;;;;;;0.43;0.43;;;;;;;19.90;76.81;94415.94;4361310;32;20215;-60